sensor_id;sensor_type;location;lat;lon;timestamp;P1;durP1;ratioP1;P2;durP2;ratioP2
3677;SDS011;1855;50.934;6.958;2022-07-22T00:01:32;11.27;;;10.10;;
3677;SDS011;1855;50.934;6.958;2022-07-22T00:03:59;11.45;;;10.35;;
3677;SDS011;1855;50.934;6.958;2022-07-22T00:06:27;11.13;;;10.02;;
3677;SDS011;1855;50.934;6.958;2022-07-22T00:08:53;11.20;;;9.77;;
3677;SDS011;1855;50.934;6.958;2022-07-22T00:11:22;10.35;;;9.35;;
3677;SDS011;1855;50.934;6.958;2022-07-22T00:13:49;10.23;;;9.30;;
3677;SDS011;1855;50.934;6.958;2022-07-22T00:16:16;10.35;;;9.38;;
3677;SDS011;1855;50.934;6.958;2022-07-22T00:18:43;9.10;;;8.30;;
3677;SDS011;1855;50.934;6.958;2022-07-22T00:21:09;9.45;;;8.55;;
3677;SDS011;1855;50.934;6.958;2022-07-22T00:23:36;8.00;;;7.30;;
3677;SDS011;1855;50.934;6.958;2022-07-22T00:26:03;9.35;;;7.50;;
3677;SDS011;1855;50.934;6.958;2022-07-22T00:28:31;10.52;;;7.22;;
3677;SDS011;1855;50.934;6.958;2022-07-22T00:30:58;7.87;;;6.80;;
3677;SDS011;1855;50.934;6.958;2022-07-22T00:33:25;7.47;;;6.30;;
3677;SDS011;1855;50.934;6.958;2022-07-22T00:35:52;7.80;;;6.17;;
3677;SDS011;1855;50.934;6.958;2022-07-22T00:38:19;8.43;;;6.53;;
3677;SDS011;1855;50.934;6.958;2022-07-22T00:40:46;6.72;;;5.90;;
3677;SDS011;1855;50.934;6.958;2022-07-22T00:43:13;8.20;;;6.13;;
3677;SDS011;1855;50.934;6.958;2022-07-22T00:45:41;7.60;;;5.40;;
3677;SDS011;1855;50.934;6.958;2022-07-22T00:48:08;7.25;;;5.50;;
3677;SDS011;1855;50.934;6.958;2022-07-22T00:50:35;6.20;;;5.60;;
3677;SDS011;1855;50.934;6.958;2022-07-22T00:53:02;7.47;;;5.97;;
3677;SDS011;1855;50.934;6.958;2022-07-22T00:55:29;7.97;;;6.68;;
3677;SDS011;1855;50.934;6.958;2022-07-22T00:57:56;8.55;;;6.82;;
3677;SDS011;1855;50.934;6.958;2022-07-22T01:00:23;9.10;;;6.18;;
3677;SDS011;1855;50.934;6.958;2022-07-22T01:02:51;6.80;;;6.10;;
3677;SDS011;1855;50.934;6.958;2022-07-22T01:05:18;8.07;;;6.25;;
3677;SDS011;1855;50.934;6.958;2022-07-22T01:07:46;8.73;;;6.85;;
3677;SDS011;1855;50.934;6.958;2022-07-22T01:10:13;9.35;;;6.35;;
3677;SDS011;1855;50.934;6.958;2022-07-22T01:12:40;9.02;;;6.50;;
3677;SDS011;1855;50.934;6.958;2022-07-22T01:15:07;7.82;;;6.55;;
3677;SDS011;1855;50.934;6.958;2022-07-22T01:17:34;6.60;;;6.00;;
3677;SDS011;1855;50.934;6.958;2022-07-22T01:20:03;10.75;;;6.63;;
3677;SDS011;1855;50.934;6.958;2022-07-22T01:22:31;9.70;;;7.20;;
3677;SDS011;1855;50.934;6.958;2022-07-22T01:24:58;7.20;;;6.45;;
3677;SDS011;1855;50.934;6.958;2022-07-22T01:27:24;8.20;;;6.70;;
3677;SDS011;1855;50.934;6.958;2022-07-22T01:29:51;8.20;;;7.32;;
3677;SDS011;1855;50.934;6.958;2022-07-22T01:32:18;10.75;;;6.53;;
3677;SDS011;1855;50.934;6.958;2022-07-22T01:34:45;8.70;;;7.78;;
3677;SDS011;1855;50.934;6.958;2022-07-22T01:37:13;10.13;;;7.80;;
3677;SDS011;1855;50.934;6.958;2022-07-22T01:39:40;10.55;;;7.95;;
3677;SDS011;1855;50.934;6.958;2022-07-22T01:42:06;9.70;;;7.40;;
3677;SDS011;1855;50.934;6.958;2022-07-22T01:44:33;10.45;;;7.72;;
3677;SDS011;1855;50.934;6.958;2022-07-22T01:47:00;7.95;;;7.15;;
3677;SDS011;1855;50.934;6.958;2022-07-22T01:49:27;9.70;;;7.70;;
3677;SDS011;1855;50.934;6.958;2022-07-22T01:51:54;8.10;;;6.93;;
3677;SDS011;1855;50.934;6.958;2022-07-22T01:54:22;9.07;;;7.70;;
3677;SDS011;1855;50.934;6.958;2022-07-22T01:56:49;9.57;;;8.00;;
3677;SDS011;1855;50.934;6.958;2022-07-22T01:59:16;8.02;;;7.22;;
3677;SDS011;1855;50.934;6.958;2022-07-22T02:01:43;8.52;;;7.40;;
3677;SDS011;1855;50.934;6.958;2022-07-22T02:04:09;9.00;;;8.10;;
3677;SDS011;1855;50.934;6.958;2022-07-22T02:06:36;9.45;;;8.40;;
3677;SDS011;1855;50.934;6.958;2022-07-22T02:09:03;9.00;;;8.10;;
3677;SDS011;1855;50.934;6.958;2022-07-22T02:11:32;9.25;;;8.35;;
3677;SDS011;1855;50.934;6.958;2022-07-22T02:13:59;9.70;;;8.55;;
3677;SDS011;1855;50.934;6.958;2022-07-22T02:16:26;11.25;;;8.10;;
3677;SDS011;1855;50.934;6.958;2022-07-22T02:18:53;8.95;;;8.02;;
3677;SDS011;1855;50.934;6.958;2022-07-22T02:21:20;9.20;;;8.30;;
3677;SDS011;1855;50.934;6.958;2022-07-22T02:23:47;9.50;;;8.60;;
3677;SDS011;1855;50.934;6.958;2022-07-22T02:26:14;9.82;;;8.80;;
3677;SDS011;1855;50.934;6.958;2022-07-22T02:28:43;9.95;;;8.50;;
3677;SDS011;1855;50.934;6.958;2022-07-22T02:31:09;8.70;;;7.90;;
3677;SDS011;1855;50.934;6.958;2022-07-22T02:33:36;10.77;;;8.65;;
3677;SDS011;1855;50.934;6.958;2022-07-22T02:36:03;10.77;;;9.00;;
3677;SDS011;1855;50.934;6.958;2022-07-22T02:38:30;9.90;;;8.88;;
3677;SDS011;1855;50.934;6.958;2022-07-22T02:40:57;10.45;;;9.35;;
3677;SDS011;1855;50.934;6.958;2022-07-22T02:43:24;10.18;;;9.27;;
3677;SDS011;1855;50.934;6.958;2022-07-22T02:45:52;10.93;;;8.95;;
3677;SDS011;1855;50.934;6.958;2022-07-22T02:48:19;10.60;;;9.60;;
3677;SDS011;1855;50.934;6.958;2022-07-22T02:50:46;10.25;;;9.27;;
3677;SDS011;1855;50.934;6.958;2022-07-22T02:53:13;10.30;;;9.20;;
3677;SDS011;1855;50.934;6.958;2022-07-22T02:55:40;9.90;;;9.00;;
3677;SDS011;1855;50.934;6.958;2022-07-22T02:58:08;10.25;;;8.88;;
3677;SDS011;1855;50.934;6.958;2022-07-22T03:00:35;13.00;;;9.60;;
3677;SDS011;1855;50.934;6.958;2022-07-22T03:03:05;10.60;;;9.50;;
3677;SDS011;1855;50.934;6.958;2022-07-22T03:05:32;11.30;;;10.10;;
3677;SDS011;1855;50.934;6.958;2022-07-22T03:07:59;11.30;;;10.20;;
3677;SDS011;1855;50.934;6.958;2022-07-22T03:10:26;10.45;;;9.45;;
3677;SDS011;1855;50.934;6.958;2022-07-22T03:12:54;10.73;;;9.73;;
3677;SDS011;1855;50.934;6.958;2022-07-22T03:15:21;11.23;;;10.10;;
3677;SDS011;1855;50.934;6.958;2022-07-22T03:17:48;11.32;;;10.18;;
3677;SDS011;1855;50.934;6.958;2022-07-22T03:20:16;11.57;;;10.07;;
3677;SDS011;1855;50.934;6.958;2022-07-22T03:22:43;12.40;;;11.15;;
3677;SDS011;1855;50.934;6.958;2022-07-22T03:25:09;12.32;;;11.02;;
3677;SDS011;1855;50.934;6.958;2022-07-22T03:27:36;11.77;;;10.68;;
3677;SDS011;1855;50.934;6.958;2022-07-22T03:30:03;10.68;;;9.77;;
3677;SDS011;1855;50.934;6.958;2022-07-22T03:32:31;11.48;;;10.20;;
3677;SDS011;1855;50.934;6.958;2022-07-22T03:34:58;11.65;;;10.65;;
3677;SDS011;1855;50.934;6.958;2022-07-22T03:37:26;11.35;;;10.23;;
3677;SDS011;1855;50.934;6.958;2022-07-22T03:39:53;10.43;;;9.52;;
3677;SDS011;1855;50.934;6.958;2022-07-22T03:42:19;10.90;;;9.53;;
3677;SDS011;1855;50.934;6.958;2022-07-22T03:44:46;10.97;;;9.50;;
3677;SDS011;1855;50.934;6.958;2022-07-22T03:47:16;10.20;;;9.30;;
3677;SDS011;1855;50.934;6.958;2022-07-22T03:49:43;10.70;;;9.60;;
3677;SDS011;1855;50.934;6.958;2022-07-22T03:52:10;10.60;;;9.60;;
3677;SDS011;1855;50.934;6.958;2022-07-22T03:54:39;10.10;;;9.20;;
3677;SDS011;1855;50.934;6.958;2022-07-22T03:57:06;9.98;;;8.98;;
3677;SDS011;1855;50.934;6.958;2022-07-22T03:59:33;9.13;;;8.23;;
3677;SDS011;1855;50.934;6.958;2022-07-22T04:02:00;10.10;;;9.10;;
3677;SDS011;1855;50.934;6.958;2022-07-22T04:04:27;10.20;;;9.20;;
3677;SDS011;1855;50.934;6.958;2022-07-22T04:06:54;10.02;;;9.02;;
3677;SDS011;1855;50.934;6.958;2022-07-22T04:09:21;9.40;;;8.57;;
3677;SDS011;1855;50.934;6.958;2022-07-22T04:11:50;10.18;;;9.27;;
3677;SDS011;1855;50.934;6.958;2022-07-22T04:14:16;10.13;;;9.13;;
3677;SDS011;1855;50.934;6.958;2022-07-22T04:16:43;10.30;;;9.30;;
3677;SDS011;1855;50.934;6.958;2022-07-22T04:19:10;10.32;;;9.32;;
3677;SDS011;1855;50.934;6.958;2022-07-22T04:21:37;10.10;;;9.10;;
3677;SDS011;1855;50.934;6.958;2022-07-22T04:24:05;10.30;;;9.40;;
3677;SDS011;1855;50.934;6.958;2022-07-22T04:26:32;10.10;;;9.10;;
3677;SDS011;1855;50.934;6.958;2022-07-22T04:29:02;9.70;;;8.80;;
3677;SDS011;1855;50.934;6.958;2022-07-22T04:31:29;10.30;;;9.40;;
3677;SDS011;1855;50.934;6.958;2022-07-22T04:33:57;9.30;;;8.50;;
3677;SDS011;1855;50.934;6.958;2022-07-22T04:36:24;10.18;;;9.18;;
3677;SDS011;1855;50.934;6.958;2022-07-22T04:38:51;10.73;;;9.73;;
3677;SDS011;1855;50.934;6.958;2022-07-22T04:41:17;10.00;;;9.10;;
3677;SDS011;1855;50.934;6.958;2022-07-22T04:43:44;9.10;;;8.33;;
3677;SDS011;1855;50.934;6.958;2022-07-22T04:46:13;9.27;;;8.47;;
3677;SDS011;1855;50.934;6.958;2022-07-22T04:48:39;10.07;;;9.10;;
3677;SDS011;1855;50.934;6.958;2022-07-22T04:51:06;9.55;;;8.60;;
3677;SDS011;1855;50.934;6.958;2022-07-22T04:53:33;11.15;;;8.80;;
3677;SDS011;1855;50.934;6.958;2022-07-22T04:56:00;10.80;;;9.80;;
3677;SDS011;1855;50.934;6.958;2022-07-22T04:58:26;10.60;;;9.60;;
3677;SDS011;1855;50.934;6.958;2022-07-22T05:00:53;10.48;;;9.48;;
3677;SDS011;1855;50.934;6.958;2022-07-22T05:03:21;10.50;;;9.50;;
3677;SDS011;1855;50.934;6.958;2022-07-22T05:05:49;9.63;;;8.68;;
3677;SDS011;1855;50.934;6.958;2022-07-22T05:08:16;9.43;;;8.52;;
3677;SDS011;1855;50.934;6.958;2022-07-22T05:10:43;10.63;;;9.63;;
3677;SDS011;1855;50.934;6.958;2022-07-22T05:13:11;10.20;;;9.20;;
3677;SDS011;1855;50.934;6.958;2022-07-22T05:15:38;9.70;;;8.80;;
3677;SDS011;1855;50.934;6.958;2022-07-22T05:18:05;9.82;;;8.93;;
3677;SDS011;1855;50.934;6.958;2022-07-22T05:20:33;8.98;;;8.18;;
3677;SDS011;1855;50.934;6.958;2022-07-22T05:23:01;9.60;;;8.65;;
3677;SDS011;1855;50.934;6.958;2022-07-22T05:25:28;10.77;;;9.88;;
3677;SDS011;1855;50.934;6.958;2022-07-22T05:27:55;11.40;;;10.50;;
3677;SDS011;1855;50.934;6.958;2022-07-22T05:30:23;11.77;;;10.60;;
3677;SDS011;1855;50.934;6.958;2022-07-22T05:32:50;12.05;;;11.05;;
3677;SDS011;1855;50.934;6.958;2022-07-22T05:35:17;12.50;;;11.30;;
3677;SDS011;1855;50.934;6.958;2022-07-22T05:37:45;11.88;;;10.88;;
3677;SDS011;1855;50.934;6.958;2022-07-22T05:40:12;11.77;;;10.43;;
3677;SDS011;1855;50.934;6.958;2022-07-22T05:42:39;11.20;;;10.30;;
3677;SDS011;1855;50.934;6.958;2022-07-22T05:45:06;14.55;;;13.35;;
3677;SDS011;1855;50.934;6.958;2022-07-22T05:47:33;12.70;;;11.60;;
3677;SDS011;1855;50.934;6.958;2022-07-22T05:50:00;12.60;;;11.52;;
3677;SDS011;1855;50.934;6.958;2022-07-22T05:52:27;12.43;;;11.23;;
3677;SDS011;1855;50.934;6.958;2022-07-22T05:54:55;12.30;;;11.10;;
3677;SDS011;1855;50.934;6.958;2022-07-22T05:57:25;11.07;;;10.13;;
3677;SDS011;1855;50.934;6.958;2022-07-22T05:59:51;10.40;;;9.40;;
3677;SDS011;1855;50.934;6.958;2022-07-22T06:02:18;10.98;;;9.95;;
3677;SDS011;1855;50.934;6.958;2022-07-22T06:04:45;11.48;;;10.38;;
3677;SDS011;1855;50.934;6.958;2022-07-22T06:07:12;10.50;;;9.35;;
3677;SDS011;1855;50.934;6.958;2022-07-22T06:09:39;9.90;;;9.00;;
3677;SDS011;1855;50.934;6.958;2022-07-22T06:12:07;9.30;;;8.45;;
3677;SDS011;1855;50.934;6.958;2022-07-22T06:14:34;10.23;;;9.23;;
3677;SDS011;1855;50.934;6.958;2022-07-22T06:17:02;11.05;;;9.30;;
3677;SDS011;1855;50.934;6.958;2022-07-22T06:19:29;10.20;;;9.20;;
3677;SDS011;1855;50.934;6.958;2022-07-22T06:21:57;10.52;;;9.43;;
3677;SDS011;1855;50.934;6.958;2022-07-22T06:24:23;10.00;;;9.10;;
3677;SDS011;1855;50.934;6.958;2022-07-22T06:26:50;10.13;;;8.80;;
3677;SDS011;1855;50.934;6.958;2022-07-22T06:29:18;9.82;;;8.82;;
3677;SDS011;1855;50.934;6.958;2022-07-22T06:31:45;9.70;;;8.90;;
3677;SDS011;1855;50.934;6.958;2022-07-22T06:34:12;10.90;;;9.90;;
3677;SDS011;1855;50.934;6.958;2022-07-22T06:36:39;10.50;;;9.60;;
3677;SDS011;1855;50.934;6.958;2022-07-22T06:39:06;11.65;;;9.90;;
3677;SDS011;1855;50.934;6.958;2022-07-22T06:41:33;11.02;;;10.02;;
3677;SDS011;1855;50.934;6.958;2022-07-22T06:44:00;11.68;;;10.57;;
3677;SDS011;1855;50.934;6.958;2022-07-22T06:46:28;11.40;;;10.30;;
3677;SDS011;1855;50.934;6.958;2022-07-22T06:48:55;16.80;;;15.30;;
3677;SDS011;1855;50.934;6.958;2022-07-22T06:51:22;12.77;;;11.68;;
3677;SDS011;1855;50.934;6.958;2022-07-22T06:53:48;12.23;;;11.23;;
3677;SDS011;1855;50.934;6.958;2022-07-22T06:56:15;13.10;;;12.00;;
3677;SDS011;1855;50.934;6.958;2022-07-22T06:58:42;12.20;;;11.10;;
3677;SDS011;1855;50.934;6.958;2022-07-22T07:01:09;10.45;;;9.65;;
3677;SDS011;1855;50.934;6.958;2022-07-22T07:03:38;9.50;;;8.70;;
3677;SDS011;1855;50.934;6.958;2022-07-22T07:06:06;9.80;;;9.00;;
3677;SDS011;1855;50.934;6.958;2022-07-22T07:08:33;9.32;;;8.63;;
3677;SDS011;1855;50.934;6.958;2022-07-22T07:11:00;8.80;;;8.10;;
3677;SDS011;1855;50.934;6.958;2022-07-22T07:13:27;8.10;;;7.30;;
3677;SDS011;1855;50.934;6.958;2022-07-22T07:15:54;7.43;;;6.72;;
3677;SDS011;1855;50.934;6.958;2022-07-22T07:18:20;6.90;;;6.30;;
3677;SDS011;1855;50.934;6.958;2022-07-22T07:20:49;7.22;;;6.53;;
3677;SDS011;1855;50.934;6.958;2022-07-22T07:23:15;11.13;;;10.13;;
3677;SDS011;1855;50.934;6.958;2022-07-22T07:25:42;7.47;;;6.57;;
3677;SDS011;1855;50.934;6.958;2022-07-22T07:28:09;7.13;;;6.32;;
3677;SDS011;1855;50.934;6.958;2022-07-22T07:30:36;7.00;;;6.40;;
3677;SDS011;1855;50.934;6.958;2022-07-22T07:33:02;6.60;;;6.00;;
3677;SDS011;1855;50.934;6.958;2022-07-22T07:35:29;6.80;;;5.97;;
3677;SDS011;1855;50.934;6.958;2022-07-22T07:37:58;6.43;;;5.82;;
3677;SDS011;1855;50.934;6.958;2022-07-22T07:40:25;8.55;;;7.75;;
3677;SDS011;1855;50.934;6.958;2022-07-22T07:42:52;6.10;;;5.50;;
3677;SDS011;1855;50.934;6.958;2022-07-22T07:45:19;7.28;;;6.53;;
3677;SDS011;1855;50.934;6.958;2022-07-22T07:47:46;6.30;;;5.63;;
3677;SDS011;1855;50.934;6.958;2022-07-22T07:50:13;6.03;;;5.22;;
3677;SDS011;1855;50.934;6.958;2022-07-22T07:52:41;6.43;;;5.82;;
3677;SDS011;1855;50.934;6.958;2022-07-22T07:55:10;7.03;;;5.82;;
3677;SDS011;1855;50.934;6.958;2022-07-22T07:57:38;5.40;;;4.90;;
3677;SDS011;1855;50.934;6.958;2022-07-22T08:00:06;5.40;;;4.90;;
3677;SDS011;1855;50.934;6.958;2022-07-22T08:02:35;6.00;;;5.40;;
3677;SDS011;1855;50.934;6.958;2022-07-22T08:05:03;5.93;;;5.30;;
3677;SDS011;1855;50.934;6.958;2022-07-22T08:07:30;7.38;;;5.82;;
3677;SDS011;1855;50.934;6.958;2022-07-22T08:09:57;7.00;;;6.40;;
3677;SDS011;1855;50.934;6.958;2022-07-22T08:12:25;6.80;;;6.10;;
3677;SDS011;1855;50.934;6.958;2022-07-22T08:14:52;6.32;;;5.40;;
3677;SDS011;1855;50.934;6.958;2022-07-22T08:17:19;6.68;;;6.10;;
3677;SDS011;1855;50.934;6.958;2022-07-22T08:19:46;6.85;;;6.20;;
3677;SDS011;1855;50.934;6.958;2022-07-22T08:22:12;7.77;;;7.07;;
3677;SDS011;1855;50.934;6.958;2022-07-22T08:24:39;8.32;;;7.63;;
3677;SDS011;1855;50.934;6.958;2022-07-22T08:27:06;9.52;;;8.52;;
3677;SDS011;1855;50.934;6.958;2022-07-22T08:29:34;9.38;;;8.60;;
3677;SDS011;1855;50.934;6.958;2022-07-22T08:32:01;9.00;;;8.30;;
3677;SDS011;1855;50.934;6.958;2022-07-22T08:34:28;7.78;;;7.07;;
3677;SDS011;1855;50.934;6.958;2022-07-22T08:36:54;8.10;;;7.40;;
3677;SDS011;1855;50.934;6.958;2022-07-22T08:39:21;8.25;;;7.65;;
3677;SDS011;1855;50.934;6.958;2022-07-22T08:41:48;9.50;;;8.70;;
3677;SDS011;1855;50.934;6.958;2022-07-22T08:44:15;9.85;;;9.07;;
3677;SDS011;1855;50.934;6.958;2022-07-22T08:46:44;9.32;;;8.45;;
3677;SDS011;1855;50.934;6.958;2022-07-22T08:49:12;9.20;;;8.30;;
3677;SDS011;1855;50.934;6.958;2022-07-22T08:51:40;9.30;;;8.40;;
3677;SDS011;1855;50.934;6.958;2022-07-22T08:54:07;8.63;;;7.60;;
3677;SDS011;1855;50.934;6.958;2022-07-22T08:56:34;8.20;;;7.50;;
3677;SDS011;1855;50.934;6.958;2022-07-22T08:59:03;8.60;;;7.90;;
3677;SDS011;1855;50.934;6.958;2022-07-22T09:01:30;10.47;;;9.47;;
3677;SDS011;1855;50.934;6.958;2022-07-22T09:03:58;8.68;;;7.88;;
3677;SDS011;1855;50.934;6.958;2022-07-22T09:06:26;8.40;;;7.60;;
3677;SDS011;1855;50.934;6.958;2022-07-22T09:08:58;9.07;;;8.27;;
3677;SDS011;1855;50.934;6.958;2022-07-22T09:11:27;8.55;;;7.75;;
3677;SDS011;1855;50.934;6.958;2022-07-22T09:13:55;8.17;;;7.37;;
3677;SDS011;1855;50.934;6.958;2022-07-22T09:16:41;8.18;;;7.47;;
3677;SDS011;1855;50.934;6.958;2022-07-22T09:19:11;9.05;;;8.35;;
3677;SDS011;1855;50.934;6.958;2022-07-22T09:21:39;8.90;;;8.10;;
3677;SDS011;1855;50.934;6.958;2022-07-22T09:24:08;9.23;;;8.45;;
3677;SDS011;1855;50.934;6.958;2022-07-22T09:26:53;8.77;;;8.07;;
3677;SDS011;1855;50.934;6.958;2022-07-22T09:29:21;8.57;;;7.88;;
3677;SDS011;1855;50.934;6.958;2022-07-22T09:31:49;8.75;;;8.05;;
3677;SDS011;1855;50.934;6.958;2022-07-22T09:34:25;8.10;;;7.50;;
3677;SDS011;1855;50.934;6.958;2022-07-22T09:36:54;8.60;;;7.90;;
3677;SDS011;1855;50.934;6.958;2022-07-22T09:39:24;8.70;;;8.00;;
3677;SDS011;1855;50.934;6.958;2022-07-22T09:41:58;9.30;;;8.40;;
3677;SDS011;1855;50.934;6.958;2022-07-22T09:44:26;8.48;;;7.88;;
3677;SDS011;1855;50.934;6.958;2022-07-22T09:46:53;8.97;;;8.27;;
3677;SDS011;1855;50.934;6.958;2022-07-22T09:49:31;8.38;;;7.68;;
3677;SDS011;1855;50.934;6.958;2022-07-22T09:51:59;8.50;;;7.80;;
3677;SDS011;1855;50.934;6.958;2022-07-22T09:54:27;8.20;;;7.50;;
3677;SDS011;1855;50.934;6.958;2022-07-22T09:56:55;8.37;;;7.80;;
3677;SDS011;1855;50.934;6.958;2022-07-22T09:59:22;8.50;;;7.80;;
3677;SDS011;1855;50.934;6.958;2022-07-22T10:01:50;8.70;;;8.00;;
3677;SDS011;1855;50.934;6.958;2022-07-22T10:04:20;8.17;;;7.50;;
3677;SDS011;1855;50.934;6.958;2022-07-22T10:06:51;8.13;;;7.53;;
3677;SDS011;1855;50.934;6.958;2022-07-22T10:09:20;9.30;;;8.60;;
3677;SDS011;1855;50.934;6.958;2022-07-22T10:11:48;9.65;;;8.95;;
3677;SDS011;1855;50.934;6.958;2022-07-22T10:14:16;9.00;;;8.37;;
3677;SDS011;1855;50.934;6.958;2022-07-22T10:16:44;9.93;;;9.15;;
3677;SDS011;1855;50.934;6.958;2022-07-22T10:19:11;9.63;;;8.93;;
3677;SDS011;1855;50.934;6.958;2022-07-22T10:21:39;8.60;;;7.90;;
3677;SDS011;1855;50.934;6.958;2022-07-22T10:24:09;9.40;;;8.60;;
3677;SDS011;1855;50.934;6.958;2022-07-22T10:26:46;9.00;;;8.30;;
3677;SDS011;1855;50.934;6.958;2022-07-22T10:29:23;8.93;;;8.32;;
3677;SDS011;1855;50.934;6.958;2022-07-22T10:38:00;7.90;;;7.30;;
3677;SDS011;1855;50.934;6.958;2022-07-22T10:40:31;8.02;;;7.43;;
3677;SDS011;1855;50.934;6.958;2022-07-22T10:43:11;7.88;;;7.20;;
3677;SDS011;1855;50.934;6.958;2022-07-22T10:45:39;8.10;;;7.40;;
3677;SDS011;1855;50.934;6.958;2022-07-22T10:48:11;8.45;;;7.72;;
3677;SDS011;1855;50.934;6.958;2022-07-22T10:50:40;7.60;;;7.10;;
3677;SDS011;1855;50.934;6.958;2022-07-22T10:53:09;7.82;;;7.13;;
3677;SDS011;1855;50.934;6.958;2022-07-22T10:55:38;7.70;;;7.10;;
3677;SDS011;1855;50.934;6.958;2022-07-22T10:58:43;7.80;;;7.20;;
3677;SDS011;1855;50.934;6.958;2022-07-22T11:01:18;7.88;;;7.28;;
3677;SDS011;1855;50.934;6.958;2022-07-22T11:03:48;7.43;;;6.82;;
3677;SDS011;1855;50.934;6.958;2022-07-22T11:06:23;7.30;;;6.80;;
3677;SDS011;1855;50.934;6.958;2022-07-22T11:08:53;7.70;;;7.10;;
3677;SDS011;1855;50.934;6.958;2022-07-22T11:11:32;7.78;;;7.18;;
3677;SDS011;1855;50.934;6.958;2022-07-22T11:14:03;7.93;;;7.32;;
3677;SDS011;1855;50.934;6.958;2022-07-22T11:16:36;8.07;;;7.28;;
3677;SDS011;1855;50.934;6.958;2022-07-22T11:19:03;8.05;;;7.40;;
3677;SDS011;1855;50.934;6.958;2022-07-22T11:21:31;8.00;;;7.40;;
3677;SDS011;1855;50.934;6.958;2022-07-22T11:23:59;7.90;;;7.30;;
3677;SDS011;1855;50.934;6.958;2022-07-22T11:26:33;8.45;;;7.75;;
3677;SDS011;1855;50.934;6.958;2022-07-22T11:29:03;7.97;;;7.38;;
3677;SDS011;1855;50.934;6.958;2022-07-22T11:31:30;8.02;;;7.32;;
3677;SDS011;1855;50.934;6.958;2022-07-22T11:34:04;8.10;;;7.50;;
3677;SDS011;1855;50.934;6.958;2022-07-22T11:36:34;8.73;;;8.13;;
3677;SDS011;1855;50.934;6.958;2022-07-22T11:39:02;8.48;;;7.78;;
3677;SDS011;1855;50.934;6.958;2022-07-22T11:41:30;7.38;;;6.88;;
3677;SDS011;1855;50.934;6.958;2022-07-22T11:43:58;7.60;;;7.00;;
3677;SDS011;1855;50.934;6.958;2022-07-22T11:46:26;7.30;;;6.80;;
3677;SDS011;1855;50.934;6.958;2022-07-22T11:48:53;7.80;;;7.20;;
3677;SDS011;1855;50.934;6.958;2022-07-22T11:51:23;8.40;;;7.80;;
3677;SDS011;1855;50.934;6.958;2022-07-22T11:53:54;7.50;;;7.00;;
3677;SDS011;1855;50.934;6.958;2022-07-22T11:56:21;7.90;;;7.35;;
3677;SDS011;1855;50.934;6.958;2022-07-22T11:58:49;7.90;;;7.30;;
3677;SDS011;1855;50.934;6.958;2022-07-22T12:01:20;8.20;;;7.60;;
3677;SDS011;1855;50.934;6.958;2022-07-22T12:03:49;8.68;;;8.00;;
3677;SDS011;1855;50.934;6.958;2022-07-22T12:06:18;8.57;;;7.88;;
3677;SDS011;1855;50.934;6.958;2022-07-22T12:08:46;8.57;;;7.97;;
3677;SDS011;1855;50.934;6.958;2022-07-22T12:11:16;8.70;;;8.10;;
3677;SDS011;1855;50.934;6.958;2022-07-22T12:13:45;8.63;;;8.02;;
3677;SDS011;1855;50.934;6.958;2022-07-22T12:16:22;8.50;;;7.90;;
3677;SDS011;1855;50.934;6.958;2022-07-22T12:18:55;8.60;;;8.00;;
3677;SDS011;1855;50.934;6.958;2022-07-22T12:21:23;8.70;;;7.90;;
3677;SDS011;1855;50.934;6.958;2022-07-22T12:23:52;8.80;;;8.20;;
3677;SDS011;1855;50.934;6.958;2022-07-22T12:26:36;8.15;;;7.45;;
3677;SDS011;1855;50.934;6.958;2022-07-22T12:29:13;8.18;;;7.57;;
3677;SDS011;1855;50.934;6.958;2022-07-22T12:31:44;7.70;;;7.20;;
3677;SDS011;1855;50.934;6.958;2022-07-22T12:34:11;7.90;;;7.30;;
3677;SDS011;1855;50.934;6.958;2022-07-22T12:36:38;8.20;;;7.60;;
3677;SDS011;1855;50.934;6.958;2022-07-22T12:39:10;8.20;;;7.60;;
3677;SDS011;1855;50.934;6.958;2022-07-22T12:41:44;8.30;;;7.70;;
3677;SDS011;1855;50.934;6.958;2022-07-22T12:44:18;9.57;;;8.80;;
3677;SDS011;1855;50.934;6.958;2022-07-22T12:46:49;9.57;;;8.88;;
3677;SDS011;1855;50.934;6.958;2022-07-22T12:49:18;10.30;;;9.30;;
3677;SDS011;1855;50.934;6.958;2022-07-22T12:54:36;8.70;;;8.10;;
3677;SDS011;1855;50.934;6.958;2022-07-22T12:57:04;8.93;;;8.23;;
3677;SDS011;1855;50.934;6.958;2022-07-22T12:59:32;7.93;;;7.32;;
3677;SDS011;1855;50.934;6.958;2022-07-22T13:02:00;8.60;;;7.90;;
3677;SDS011;1855;50.934;6.958;2022-07-22T13:04:27;8.13;;;7.63;;
3677;SDS011;1855;50.934;6.958;2022-07-22T13:06:55;7.65;;;7.05;;
3677;SDS011;1855;50.934;6.958;2022-07-22T13:09:21;7.85;;;7.25;;
3677;SDS011;1855;50.934;6.958;2022-07-22T13:11:48;7.70;;;7.10;;
3677;SDS011;1855;50.934;6.958;2022-07-22T13:14:15;8.30;;;7.70;;
3677;SDS011;1855;50.934;6.958;2022-07-22T13:16:42;8.40;;;7.80;;
3677;SDS011;1855;50.934;6.958;2022-07-22T13:19:10;8.93;;;8.23;;
3677;SDS011;1855;50.934;6.958;2022-07-22T13:21:37;8.15;;;7.55;;
3677;SDS011;1855;50.934;6.958;2022-07-22T13:24:04;8.77;;;8.00;;
3677;SDS011;1855;50.934;6.958;2022-07-22T13:26:31;8.50;;;7.80;;
3677;SDS011;1855;50.934;6.958;2022-07-22T13:28:58;7.50;;;6.85;;
3677;SDS011;1855;50.934;6.958;2022-07-22T13:31:25;7.78;;;7.10;;
3677;SDS011;1855;50.934;6.958;2022-07-22T13:33:52;7.70;;;7.00;;
3677;SDS011;1855;50.934;6.958;2022-07-22T13:36:20;8.90;;;8.20;;
3677;SDS011;1855;50.934;6.958;2022-07-22T13:38:48;8.02;;;7.43;;
3677;SDS011;1855;50.934;6.958;2022-07-22T13:41:16;8.80;;;8.20;;
3677;SDS011;1855;50.934;6.958;2022-07-22T13:43:43;8.73;;;8.02;;
3677;SDS011;1855;50.934;6.958;2022-07-22T13:46:11;8.40;;;7.70;;
3677;SDS011;1855;50.934;6.958;2022-07-22T13:48:38;9.80;;;9.00;;
3677;SDS011;1855;50.934;6.958;2022-07-22T13:51:05;9.00;;;8.30;;
3677;SDS011;1855;50.934;6.958;2022-07-22T13:53:34;8.57;;;7.90;;
3677;SDS011;1855;50.934;6.958;2022-07-22T13:56:00;8.55;;;7.78;;
3677;SDS011;1855;50.934;6.958;2022-07-22T13:58:28;8.95;;;8.25;;
3677;SDS011;1855;50.934;6.958;2022-07-22T14:00:55;9.07;;;8.27;;
3677;SDS011;1855;50.934;6.958;2022-07-22T14:03:22;9.07;;;8.38;;
3677;SDS011;1855;50.934;6.958;2022-07-22T14:05:49;10.13;;;9.25;;
3677;SDS011;1855;50.934;6.958;2022-07-22T14:08:16;9.10;;;8.40;;
3677;SDS011;1855;50.934;6.958;2022-07-22T14:10:44;8.68;;;7.95;;
3677;SDS011;1855;50.934;6.958;2022-07-22T14:13:11;8.48;;;7.88;;
3677;SDS011;1855;50.934;6.958;2022-07-22T14:15:38;9.63;;;8.93;;
3677;SDS011;1855;50.934;6.958;2022-07-22T14:18:04;9.50;;;8.70;;
3677;SDS011;1855;50.934;6.958;2022-07-22T14:20:32;9.70;;;9.00;;
3677;SDS011;1855;50.934;6.958;2022-07-22T14:22:59;9.20;;;8.50;;
3677;SDS011;1855;50.934;6.958;2022-07-22T14:25:28;9.05;;;8.35;;
3677;SDS011;1855;50.934;6.958;2022-07-22T14:27:56;9.50;;;8.70;;
3677;SDS011;1855;50.934;6.958;2022-07-22T14:30:23;9.05;;;8.35;;
3677;SDS011;1855;50.934;6.958;2022-07-22T14:32:50;8.63;;;7.83;;
3677;SDS011;1855;50.934;6.958;2022-07-22T14:35:17;7.45;;;6.85;;
3677;SDS011;1855;50.934;6.958;2022-07-22T14:37:43;8.68;;;7.93;;
3677;SDS011;1855;50.934;6.958;2022-07-22T14:40:11;8.38;;;7.78;;
3677;SDS011;1855;50.934;6.958;2022-07-22T14:42:38;9.27;;;8.63;;
3677;SDS011;1855;50.934;6.958;2022-07-22T14:45:07;8.70;;;8.00;;
3677;SDS011;1855;50.934;6.958;2022-07-22T14:47:35;9.13;;;8.32;;
3677;SDS011;1855;50.934;6.958;2022-07-22T14:50:02;9.23;;;8.50;;
3677;SDS011;1855;50.934;6.958;2022-07-22T14:52:29;9.07;;;8.38;;
3677;SDS011;1855;50.934;6.958;2022-07-22T14:54:56;8.75;;;8.05;;
3677;SDS011;1855;50.934;6.958;2022-07-22T14:57:23;8.57;;;7.90;;
3677;SDS011;1855;50.934;6.958;2022-07-22T14:59:50;9.50;;;8.70;;
3677;SDS011;1855;50.934;6.958;2022-07-22T15:02:18;9.20;;;8.50;;
3677;SDS011;1855;50.934;6.958;2022-07-22T15:04:45;8.70;;;8.10;;
3677;SDS011;1855;50.934;6.958;2022-07-22T15:07:12;9.30;;;8.50;;
3677;SDS011;1855;50.934;6.958;2022-07-22T15:09:39;9.10;;;8.20;;
3677;SDS011;1855;50.934;6.958;2022-07-22T15:12:05;8.32;;;7.72;;
3677;SDS011;1855;50.934;6.958;2022-07-22T15:14:32;8.98;;;8.38;;
3677;SDS011;1855;50.934;6.958;2022-07-22T15:16:59;8.57;;;7.97;;
3677;SDS011;1855;50.934;6.958;2022-07-22T15:19:27;8.90;;;8.20;;
3677;SDS011;1855;50.934;6.958;2022-07-22T15:21:54;9.45;;;8.75;;
3677;SDS011;1855;50.934;6.958;2022-07-22T15:24:21;9.20;;;8.50;;